Time;durP1;ratioP1;P1;durP2;ratioP2;P2;SDS_P1;SDS_P2;PMS_P1;PMS_P2;Temp;Humidity;BMP_temperature;BMP_pressure;BME280_temperature;BME280_humidity;BME280_pressure;Samples;Min_cycle;Max_cycle;Signal;HPM_P1;HPM_P2
2022/06/03 00:00:22;;;;;;;18.75;11.38;;;;;;;;;;5013698;28;20034;-71
2022/06/03 00:03:07;;;;;;;16.85;9.95;;;;;;;;;;5014761;28;20092;-73
2022/06/03 00:05:53;;;;;;;15.33;10.40;;;;;;;;;;5021163;28;20525;-73
2022/06/03 00:08:33;;;;;;;14.25;9.20;;;;;;;;;;5014616;28;20041;-73
2022/06/03 00:11:05;;;;;;;18.50;10.98;;;;;;;;;;5018049;28;20110;-74
2022/06/03 00:13:31;;;;;;;16.52;10.85;;;;;;;;;;5019836;28;20093;-73
2022/06/03 00:16:10;;;;;;;20.95;11.82;;;;;;;;;;5014841;28;20025;-75
2022/06/03 00:18:48;;;;;;;19.15;11.85;;;;;;;;;;5017860;28;20037;-74
2022/06/03 00:21:18;;;;;;;17.17;10.98;;;;;;;;;;5014617;28;20038;-74
2022/06/03 00:24:08;;;;;;;20.92;11.77;;;;;;;;;;5017394;28;20037;-74
2022/06/03 00:26:40;;;;;;;17.50;10.70;;;;;;;;;;5014878;28;20057;-73
2022/06/03 00:29:12;;;;;;;16.38;10.93;;;;;;;;;;5016819;28;20041;-74
2022/06/03 00:31:57;;;;;;;18.40;10.57;;;;;;;;;;5023304;28;20041;-74
2022/06/03 00:34:31;;;;;;;14.82;10.35;;;;;;;;;;5019213;28;20308;-73
2022/06/03 00:37:16;;;;;;;20.90;11.13;;;;;;;;;;5012647;28;20045;-73
2022/06/03 00:39:45;;;;;;;16.00;9.98;;;;;;;;;;5019481;28;20026;-73
2022/06/03 00:42:30;;;;;;;17.30;9.60;;;;;;;;;;5023186;28;20399;-77
2022/06/03 00:45:08;;;;;;;12.57;8.83;;;;;;;;;;5013797;28;20060;-75
2022/06/03 00:47:43;;;;;;;14.63;8.70;;;;;;;;;;5021953;28;20053;-74
2022/06/03 00:50:29;;;;;;;12.32;8.43;;;;;;;;;;5013444;28;20037;-75
2022/06/03 00:53:13;;;;;;;10.55;7.60;;;;;;;;;;5017665;28;20470;-74
2022/06/03 00:55:58;;;;;;;14.23;8.27;;;;;;;;;;5008316;28;20021;-72
2022/06/03 00:58:41;;;;;;;10.82;7.85;;;;;;;;;;5014295;28;20041;-75
2022/06/03 01:01:10;;;;;;;11.07;7.25;;;;;;;;;;5020964;28;20034;-74
2022/06/03 01:03:55;;;;;;;10.18;6.97;;;;;;;;;;5012163;28;20030;-72
2022/06/03 01:06:21;;;;;;;9.45;7.00;;;;;;;;;;5016760;28;20101;-74
2022/06/03 01:08:59;;;;;;;9.73;6.55;;;;;;;;;;5016537;28;20088;-72
2022/06/03 01:11:37;;;;;;;9.60;5.65;;;;;;;;;;5020535;28;20034;-74
2022/06/03 01:14:08;;;;;;;8.18;6.18;;;;;;;;;;5012582;28;20018;-73
2022/06/03 01:16:53;;;;;;;9.63;6.38;;;;;;;;;;5014900;28;20037;-73
2022/06/03 01:19:25;;;;;;;9.25;6.13;;;;;;;;;;5020017;28;20033;-72
2022/06/03 01:22:10;;;;;;;8.57;5.82;;;;;;;;;;5013964;28;20018;-73
2022/06/03 01:24:36;;;;;;;9.10;5.77;;;;;;;;;;5015091;28;20022;-76
2022/06/03 01:27:21;;;;;;;8.88;5.85;;;;;;;;;;5013871;28;20018;-74
2022/06/03 01:30:06;;;;;;;9.40;6.35;;;;;;;;;;5019521;28;20093;-72
2022/06/03 01:32:39;;;;;;;11.98;6.63;;;;;;;;;;5020574;28;20032;-73
2022/06/03 01:35:08;;;;;;;7.93;5.70;;;;;;;;;;5007414;28;20117;-73
2022/06/03 01:37:40;;;;;;;7.82;5.65;;;;;;;;;;5023948;28;20054;-72
2022/06/03 01:40:06;;;;;;;9.18;5.97;;;;;;;;;;5017956;28;20109;-72
2022/06/03 01:42:41;;;;;;;9.90;7.00;;;;;;;;;;5015766;28;20041;-73
2022/06/03 01:45:26;;;;;;;10.75;7.30;;;;;;;;;;5015346;28;20034;-72
2022/06/03 01:47:58;;;;;;;11.95;7.70;;;;;;;;;;5028011;28;20033;-73
2022/06/03 01:50:27;;;;;;;9.68;6.95;;;;;;;;;;5015587;28;20092;-72
2022/06/03 01:53:08;;;;;;;10.40;6.50;;;;;;;;;;5018293;28;20030;-74
2022/06/03 01:55:45;;;;;;;10.32;7.07;;;;;;;;;;5015282;28;20531;-73
2022/06/03 01:58:11;;;;;;;8.82;6.85;;;;;;;;;;5018607;28;20028;-74
2022/06/03 02:00:39;;;;;;;11.90;7.20;;;;;;;;;;5022321;28;20026;-73
2022/06/03 02:03:08;;;;;;;9.73;6.47;;;;;;;;;;5017819;28;20026;-72
2022/06/03 02:05:46;;;;;;;9.95;6.63;;;;;;;;;;5019990;28;20080;-74
2022/06/03 02:08:31;;;;;;;10.35;7.07;;;;;;;;;;5013187;28;20176;-74
2022/06/03 02:11:17;;;;;;;12.03;7.47;;;;;;;;;;5013987;28;20037;-73
2022/06/03 02:14:01;;;;;;;8.90;6.38;;;;;;;;;;5016423;28;20280;-74
2022/06/03 02:16:28;;;;;;;11.93;8.40;;;;;;;;;;5014957;28;20033;-73
2022/06/03 02:18:54;;;;;;;12.65;7.65;;;;;;;;;;5017980;28;20026;-73
2022/06/03 02:21:26;;;;;;;11.13;7.53;;;;;;;;;;5016214;28;20092;-73
2022/06/03 02:23:56;;;;;;;10.98;8.15;;;;;;;;;;5013591;28;20105;-73
2022/06/03 02:26:40;;;;;;;13.38;7.95;;;;;;;;;;5019132;28;20029;-73
2022/06/03 02:32:16;;;;;;;12.35;8.77;;;;;;;;;;5017775;28;20098;-72
2022/06/03 02:34:42;;;;;;;;;;;;;;;;;;5014529;28;20018;-73
2022/06/03 02:37:20;;;;;;;11.48;7.85;;;;;;;;;;5018164;28;20000;-73
2022/06/03 02:40:01;;;;;;;14.52;9.30;;;;;;;;;;5015121;28;20026;-73
2022/06/03 02:42:43;;;;;;;13.23;8.95;;;;;;;;;;5006934;28;20032;-74
2022/06/03 02:45:36;;;;;;;13.48;8.68;;;;;;;;;;5017638;28;20104;-74
2022/06/03 02:48:06;;;;;;;15.23;9.30;;;;;;;;;;5012077;28;20113;-73
2022/06/03 02:50:50;;;;;;;11.13;7.32;;;;;;;;;;5013473;28;20042;-74
2022/06/03 02:53:35;;;;;;;13.63;8.70;;;;;;;;;;5014268;28;20100;-72
2022/06/03 02:56:11;;;;;;;10.27;7.38;;;;;;;;;;5015752;28;20062;-73
2022/06/03 02:58:52;;;;;;;12.38;8.68;;;;;;;;;;5018358;28;20022;-73
2022/06/03 03:01:28;;;;;;;10.73;8.35;;;;;;;;;;5013352;28;20030;-73
2022/06/03 03:03:56;;;;;;;;;;;;;;;;;;5013577;28;20041;-74
2022/06/03 03:06:25;;;;;;;15.20;8.05;;;;;;;;;;5018919;28;20371;-74
2022/06/03 03:08:51;;;;;;;11.45;7.38;;;;;;;;;;5016689;28;20026;-74
2022/06/03 03:11:27;;;;;;;7.97;6.03;;;;;;;;;;5011595;28;20037;-76
2022/06/03 03:14:11;;;;;;;9.15;6.85;;;;;;;;;;5015363;28;20018;-73
2022/06/03 03:16:37;;;;;;;11.40;6.70;;;;;;;;;;5011234;28;20030;-73
2022/06/03 03:19:18;;;;;;;9.10;6.55;;;;;;;;;;5023224;28;20022;-72
2022/06/03 03:21:57;;;;;;;10.52;6.60;;;;;;;;;;5010752;28;20038;-74
2022/06/03 03:24:34;;;;;;;9.20;7.18;;;;;;;;;;5012764;28;20065;-75
2022/06/03 03:27:19;;;;;;;6.88;5.53;;;;;;;;;;5012727;28;20109;-74
2022/06/03 03:29:51;;;;;;;9.57;5.93;;;;;;;;;;5031519;28;20038;-76
2022/06/03 03:32:25;;;;;;;7.85;5.35;;;;;;;;;;5020103;28;20391;-73
2022/06/03 03:35:10;;;;;;;8.00;5.78;;;;;;;;;;5017697;28;20033;-71
2022/06/03 03:37:42;;;;;;;7.50;5.43;;;;;;;;;;5015304;28;20069;-73
2022/06/03 03:40:11;;;;;;;7.30;4.65;;;;;;;;;;5019265;28;20492;-72
2022/06/03 03:42:43;;;;;;;7.20;5.38;;;;;;;;;;5019424;28;20511;-75
2022/06/03 03:45:28;;;;;;;7.22;4.75;;;;;;;;;;5024550;28;20026;-74
2022/06/03 03:47:57;;;;;;;5.18;4.68;;;;;;;;;;5031403;28;20026;-73
2022/06/03 03:50:42;;;;;;;5.28;4.43;;;;;;;;;;5023004;28;20064;-76
2022/06/03 03:53:17;;;;;;;6.03;4.93;;;;;;;;;;5020208;28;20041;-74
2022/06/03 03:55:43;;;;;;;4.32;3.67;;;;;;;;;;5019456;28;20029;-73
2022/06/03 03:58:18;;;;;;;4.30;3.13;;;;;;;;;;5024029;28;20081;-73
2022/06/03 04:00:44;;;;;;;5.28;3.15;;;;;;;;;;5020326;28;20088;-74
2022/06/03 04:03:23;;;;;;;5.50;3.35;;;;;;;;;;5025711;28;20026;-73
2022/06/03 04:06:08;;;;;;;3.78;3.30;;;;;;;;;;5023180;28;20057;-74
2022/06/03 04:08:49;;;;;;;5.40;3.15;;;;;;;;;;5015425;28;20058;-74
2022/06/03 04:11:24;;;;;;;4.72;3.75;;;;;;;;;;5015977;28;20030;-74
2022/06/03 04:14:09;;;;;;;4.97;3.10;;;;;;;;;;5019862;28;20081;-73
2022/06/03 04:16:43;;;;;;;6.00;3.72;;;;;;;;;;5017549;28;20526;-73
2022/06/03 04:19:12;;;;;;;4.22;3.13;;;;;;;;;;5022746;28;20040;-72
2022/06/03 04:21:57;;;;;;;4.60;3.80;;;;;;;;;;5016570;28;20100;-73
2022/06/03 04:24:39;;;;;;;5.15;4.05;;;;;;;;;;5018745;28;20038;-73
2022/06/03 04:27:05;;;;;;;6.38;3.70;;;;;;;;;;5018776;28;20048;-74
2022/06/03 04:29:43;;;;;;;5.40;4.50;;;;;;;;;;5018789;28;20396;-74
2022/06/03 04:32:10;;;;;;;6.20;4.38;;;;;;;;;;5027303;28;20025;-74
2022/06/03 04:34:42;;;;;;;8.60;4.70;;;;;;;;;;5019512;28;20643;-73
2022/06/03 04:37:38;;;;;;;6.03;4.63;;;;;;;;;;5031197;28;20442;-72
2022/06/03 04:40:07;;;;;;;5.70;4.43;;;;;;;;;;5017882;28;20033;-73
2022/06/03 04:42:46;;;;;;;8.65;5.22;;;;;;;;;;5020339;28;20324;-73
2022/06/03 04:45:24;;;;;;;7.28;5.70;;;;;;;;;;5018232;28;20073;-74
2022/06/03 04:48:09;;;;;;;6.70;5.22;;;;;;;;;;5019136;28;20030;-73
2022/06/03 04:50:53;;;;;;;6.32;4.75;;;;;;;;;;5016643;28;20041;-73
2022/06/03 04:53:19;;;;;;;5.57;4.40;;;;;;;;;;5016201;28;20093;-73
2022/06/03 04:56:01;;;;;;;7.25;5.10;;;;;;;;;;5019578;28;20030;-73
2022/06/03 04:58:46;;;;;;;7.05;5.13;;;;;;;;;;5012450;28;20026;-73
2022/06/03 05:01:38;;;;;;;7.03;4.82;;;;;;;;;;5017019;28;20029;-74
2022/06/03 05:04:04;;;;;;;5.40;4.22;;;;;;;;;;5021557;28;20030;-74
2022/06/03 05:06:33;;;;;;;4.78;4.38;;;;;;;;;;5015124;28;20034;-73
2022/06/03 05:09:30;;;;;;;6.43;4.28;;;;;;;;;;5018157;28;20024;-73
2022/06/03 05:12:17;;;;;;;7.60;4.03;;;;;;;;;;5021780;28;20038;-73
2022/06/03 05:14:56;;;;;;;4.75;4.18;;;;;;;;;;5018179;28;20114;-74
2022/06/03 05:17:41;;;;;;;4.75;3.83;;;;;;;;;;5013898;28;20037;-74
2022/06/03 05:20:16;;;;;;;7.80;4.47;;;;;;;;;;5013504;28;20107;-72
2022/06/03 05:23:01;;;;;;;4.85;3.50;;;;;;;;;;5015146;28;20053;-72
2022/06/03 05:25:34;;;;;;;4.10;3.45;;;;;;;;;;5015891;28;20029;-73
2022/06/03 05:28:10;;;;;;;5.18;4.07;;;;;;;;;;5018898;28;20033;-73
2022/06/03 05:30:40;;;;;;;5.22;4.30;;;;;;;;;;5022805;28;20037;-74
2022/06/03 05:33:32;;;;;;;5.28;3.78;;;;;;;;;;5017764;28;20041;-74
2022/06/03 05:36:17;;;;;;;4.78;3.78;;;;;;;;;;5014770;28;20046;-74
2022/06/03 05:39:07;;;;;;;4.32;3.53;;;;;;;;;;5013380;28;20398;-73
2022/06/03 05:44:40;;;;;;;5.88;4.47;;;;;;;;;;5013709;28;20153;-74
2022/06/03 05:47:09;;;;;;;7.15;4.55;;;;;;;;;;5019065;28;20048;-73
2022/06/03 05:49:49;;;;;;;4.90;3.70;;;;;;;;;;5017717;28;20061;-74
2022/06/03 05:52:26;;;;;;;6.38;4.40;;;;;;;;;;5012672;28;20030;-74
2022/06/03 05:54:58;;;;;;;5.18;4.13;;;;;;;;;;5011405;28;20049;-73
2022/06/03 05:57:35;;;;;;;7.25;4.20;;;;;;;;;;5011305;28;20500;-73
2022/06/03 06:00:18;;;;;;;5.20;3.72;;;;;;;;;;5021835;28;20552;-73
2022/06/03 06:02:53;;;;;;;7.70;4.20;;;;;;;;;;5017970;28;20041;-75
2022/06/03 06:05:23;;;;;;;5.40;4.07;;;;;;;;;;5019706;28;20231;-73
2022/06/03 06:07:58;;;;;;;6.63;4.35;;;;;;;;;;5016212;28;20125;-74
2022/06/03 06:10:30;;;;;;;6.45;4.38;;;;;;;;;;5011831;28;20038;-75
2022/06/03 06:13:56;;;;;;;4.78;4.07;;;;;;;;;;5016274;28;20036;-72
2022/06/03 06:16:08;;;;;;;5.35;3.83;;;;;;;;;;5010528;28;20026;-73
2022/06/03 06:18:38;;;;;;;5.18;3.85;;;;;;;;;;5010411;28;20488;-73
2022/06/03 06:21:04;;;;;;;5.05;3.80;;;;;;;;;;5014590;28;20029;-73
2022/06/03 06:23:33;;;;;;;7.57;4.22;;;;;;;;;;5011854;28;20046;-74
2022/06/03 06:26:02;;;;;;;5.30;3.30;;;;;;;;;;5015049;28;20033;-73
2022/06/03 06:28:47;;;;;;;4.20;3.50;;;;;;;;;;5015115;28;20238;-74
2022/06/03 06:31:32;;;;;;;5.27;4.47;;;;;;;;;;5007051;28;20125;-74
2022/06/03 06:34:00;;;;;;;4.30;3.90;;;;;;;;;;5014363;28;20032;-73
2022/06/03 06:36:37;;;;;;;5.97;4.65;;;;;;;;;;5017476;28;20104;-74
2022/06/03 06:39:24;;;;;;;4.95;4.00;;;;;;;;;;5007328;28;20040;-74
2022/06/03 06:42:03;;;;;;;3.85;3.38;;;;;;;;;;4994190;28;20037;-74
2022/06/03 06:44:34;;;;;;;5.50;4.28;;;;;;;;;;5019162;28;20034;-73
2022/06/03 06:47:05;;;;;;;5.18;4.18;;;;;;;;;;5018828;28;20021;-73
2022/06/03 06:49:35;;;;;;;5.70;4.65;;;;;;;;;;5017528;28;20121;-73
2022/06/03 06:52:20;;;;;;;5.72;4.65;;;;;;;;;;5014084;28;20106;-73
2022/06/03 06:54:52;;;;;;;5.22;4.57;;;;;;;;;;5015260;28;20025;-73
2022/06/03 06:57:26;;;;;;;6.78;4.97;;;;;;;;;;5013195;28;20022;-73
2022/06/03 07:00:18;;;;;;;6.60;5.22;;;;;;;;;;5012599;28;20037;-73
2022/06/03 07:02:44;;;;;;;8.35;5.97;;;;;;;;;;5010708;28;20045;-73
2022/06/03 07:05:10;;;;;;;7.72;6.03;;;;;;;;;;5008079;28;20021;-72
2022/06/03 07:07:57;;;;;;;9.63;6.45;;;;;;;;;;5011501;28;20058;-74
2022/06/03 07:10:26;;;;;;;7.95;5.97;;;;;;;;;;4999350;28;20666;-73
2022/06/03 07:12:55;;;;;;;7.68;5.82;;;;;;;;;;5014161;28;20026;-72
2022/06/03 07:15:36;;;;;;;8.00;5.93;;;;;;;;;;5000979;28;20030;-75
2022/06/03 07:21:07;;;;;;;9.98;7.55;;;;;;;;;;5003448;28;20523;-74
2022/06/03 07:23:53;;;;;;;10.90;7.10;;;;;;;;;;5008456;28;20555;-73
2022/06/03 07:26:30;;;;;;;8.32;6.25;;;;;;;;;;5005662;28;20049;-72
2022/06/03 07:29:15;;;;;;;10.48;7.18;;;;;;;;;;5009830;28;20041;-75
2022/06/03 07:31:44;;;;;;;10.90;7.75;;;;;;;;;;5002864;28;20030;-72
2022/06/03 07:34:17;;;;;;;11.65;8.40;;;;;;;;;;5025521;28;20036;-74
2022/06/03 07:36:46;;;;;;;16.17;9.25;;;;;;;;;;5018250;28;20049;-71
2022/06/03 07:39:35;;;;;;;12.52;8.77;;;;;;;;;;5019862;28;20029;-71
2022/06/03 07:42:01;;;;;;;12.25;8.38;;;;;;;;;;5016475;28;20030;-71
2022/06/03 07:44:51;;;;;;;12.70;8.75;;;;;;;;;;5026030;28;20080;-72
2022/06/03 07:47:18;;;;;;;12.10;8.60;;;;;;;;;;5021409;28;20034;-72
2022/06/03 07:49:46;;;;;;;10.57;8.00;;;;;;;;;;5013214;28;20038;-71
2022/06/03 07:52:33;;;;;;;14.73;8.82;;;;;;;;;;5020826;28;20513;-71
2022/06/03 07:55:00;;;;;;;11.65;8.90;;;;;;;;;;5020121;28;20026;-72
2022/06/03 07:57:30;;;;;;;11.57;8.30;;;;;;;;;;5022227;28;20487;-72
2022/06/03 07:59:57;;;;;;;16.02;8.85;;;;;;;;;;5021378;28;20032;-72
2022/06/03 08:02:24;;;;;;;10.13;8.00;;;;;;;;;;5018378;28;20026;-71
2022/06/03 08:05:00;;;;;;;12.07;9.23;;;;;;;;;;5018406;28;20038;-72
2022/06/03 08:13:01;;;;;;;13.00;8.75;;;;;;;;;;5016394;28;20526;-74
2022/06/03 08:15:29;;;;;;;10.35;7.40;;;;;;;;;;5022794;28;20159;-72
2022/06/03 08:17:55;;;;;;;8.60;7.10;;;;;;;;;;5010495;28;20034;-75
2022/06/03 08:20:23;;;;;;;8.52;6.20;;;;;;;;;;5007511;28;20030;-74
2022/06/03 08:22:50;;;;;;;9.63;6.60;;;;;;;;;;5017904;28;20032;-73
2022/06/03 08:25:19;;;;;;;11.85;7.80;;;;;;;;;;5013683;28;20029;-75
2022/06/03 08:27:45;;;;;;;7.78;5.80;;;;;;;;;;5010486;28;20029;-75
2022/06/03 08:30:13;;;;;;;8.43;5.97;;;;;;;;;;5004131;28;20040;-75
2022/06/03 08:32:40;;;;;;;9.32;6.18;;;;;;;;;;5016021;28;20551;-74
2022/06/03 08:35:29;;;;;;;7.60;6.80;;;;;;;;;;5014310;28;20034;-74
2022/06/03 08:37:58;;;;;;;8.75;7.85;;;;;;;;;;5005793;28;20071;-74
2022/06/03 08:40:43;;;;;;;8.73;6.90;;;;;;;;;;5011949;28;20028;-76
2022/06/03 08:43:15;;;;;;;7.25;6.43;;;;;;;;;;5007228;28;20109;-74
2022/06/03 08:45:46;;;;;;;7.57;6.22;;;;;;;;;;5015052;28;20025;-75
2022/06/03 08:48:14;;;;;;;7.70;5.97;;;;;;;;;;5002654;28;20030;-73
2022/06/03 08:50:46;;;;;;;8.43;5.15;;;;;;;;;;5014061;28;20026;-74
2022/06/03 08:53:33;;;;;;;7.03;5.57;;;;;;;;;;5015032;28;20056;-75
2022/06/03 08:56:10;;;;;;;7.70;5.63;;;;;;;;;;5022079;28;20022;-75
2022/06/03 08:58:36;;;;;;;6.75;4.68;;;;;;;;;;5012548;28;20084;-74
2022/06/03 09:01:22;;;;;;;5.32;4.82;;;;;;;;;;5012159;28;20037;-72
2022/06/03 09:03:56;;;;;;;5.55;3.25;;;;;;;;;;5013135;28;20030;-74
2022/06/03 09:06:31;;;;;;;3.33;2.90;;;;;;;;;;5017732;28;20045;-75
2022/06/03 09:09:00;;;;;;;7.72;2.63;;;;;;;;;;5024412;28;20041;-73
2022/06/03 09:11:46;;;;;;;3.67;2.33;;;;;;;;;;5016753;28;20137;-74
2022/06/03 09:14:17;;;;;;;3.65;2.42;;;;;;;;;;5018445;28;20395;-75
2022/06/03 09:16:44;;;;;;;2.17;1.98;;;;;;;;;;5022568;28;20057;-75
2022/06/03 09:19:17;;;;;;;2.60;2.33;;;;;;;;;;5026801;28;20602;-72
2022/06/03 09:21:44;;;;;;;2.95;2.35;;;;;;;;;;5024568;28;20057;-74
2022/06/03 09:24:14;;;;;;;3.78;2.40;;;;;;;;;;5016288;28;20567;-72
2022/06/03 09:26:44;;;;;;;5.93;2.30;;;;;;;;;;5013153;28;20040;-72
2022/06/03 09:29:12;;;;;;;2.45;2.22;;;;;;;;;;5012644;28;20030;-74
2022/06/03 09:31:39;;;;;;;5.97;2.60;;;;;;;;;;5015502;28;20064;-76
2022/06/03 09:34:07;;;;;;;3.45;2.90;;;;;;;;;;5021003;28;20411;-73
2022/06/03 09:36:33;;;;;;;4.40;2.70;;;;;;;;;;5016055;28;20121;-74
2022/06/03 09:39:01;;;;;;;3.92;2.85;;;;;;;;;;5016437;28;20530;-73
2022/06/03 09:41:30;;;;;;;3.22;2.65;;;;;;;;;;5015872;28;20124;-71
2022/06/03 09:43:57;;;;;;;2.58;2.38;;;;;;;;;;5020487;28;20037;-72
2022/06/03 09:46:24;;;;;;;5.53;2.80;;;;;;;;;;5021481;28;20356;-75
2022/06/03 09:48:51;;;;;;;4.70;2.88;;;;;;;;;;5018047;28;20034;-74
2022/06/03 09:51:19;;;;;;;3.30;2.55;;;;;;;;;;5019458;28;20025;-72
2022/06/03 09:53:46;;;;;;;4.03;2.55;;;;;;;;;;5017242;28;20036;-77
2022/06/03 09:56:29;;;;;;;3.83;3.15;;;;;;;;;;5016698;28;20021;-75
2022/06/03 09:58:58;;;;;;;5.28;2.90;;;;;;;;;;5014977;28;20147;-73
2022/06/03 10:01:24;;;;;;;4.90;2.97;;;;;;;;;;5021074;28;20111;-75
2022/06/03 10:03:54;;;;;;;4.55;2.90;;;;;;;;;;5020475;28;20562;-73
2022/06/03 10:14:34;;;;;;;5.15;2.85;;;;;;;;;;5012659;28;20057;-73
2022/06/03 10:17:01;;;;;;;3.50;2.70;;;;;;;;;;5007061;28;20105;-75
2022/06/03 10:19:27;;;;;;;3.00;2.70;;;;;;;;;;5014323;28;20018;-74
2022/06/03 10:21:54;;;;;;;3.80;3.03;;;;;;;;;;5014376;28;20298;-73
2022/06/03 10:24:23;;;;;;;3.67;3.15;;;;;;;;;;5008266;28;20112;-74
2022/06/03 10:26:50;;;;;;;3.88;3.45;;;;;;;;;;5012359;28;20132;-75
2022/06/03 10:29:18;;;;;;;5.32;3.80;;;;;;;;;;5012543;28;20045;-75
2022/06/03 10:31:48;;;;;;;6.03;4.30;;;;;;;;;;5014594;28;20044;-75
2022/06/03 10:34:17;;;;;;;3.85;3.45;;;;;;;;;;5001978;28;20747;-72
2022/06/03 10:36:45;;;;;;;3.83;3.05;;;;;;;;;;5013289;28;20076;-74
2022/06/03 10:39:15;;;;;;;3.85;3.47;;;;;;;;;;5015633;28;20136;-73
2022/06/03 10:41:43;;;;;;;4.32;3.45;;;;;;;;;;5002358;28;20365;-74
2022/06/03 10:44:26;;;;;;;3.35;3.05;;;;;;;;;;5014357;28;20036;-74
2022/06/03 10:47:06;;;;;;;3.95;3.42;;;;;;;;;;5016383;28;20743;-73
2022/06/03 10:49:36;;;;;;;3.05;2.72;;;;;;;;;;5007723;28;20096;-74
2022/06/03 11:03:26;;;;;;;3.97;2.90;;;;;;;;;;5011341;28;20040;-76
2022/06/03 11:05:52;;;;;;;3.97;2.63;;;;;;;;;;5008070;28;20037;-74
2022/06/03 11:08:19;;;;;;;5.25;2.67;;;;;;;;;;5012118;28;20017;-74
2022/06/03 11:10:56;;;;;;;6.10;2.20;;;;;;;;;;5013233;28;20088;-75
2022/06/03 11:13:33;;;;;;;4.53;2.70;;;;;;;;;;5013873;28;20096;-75
2022/06/03 11:16:19;;;;;;;2.35;2.13;;;;;;;;;;5015590;28;20036;-75
2022/06/03 11:18:45;;;;;;;2.58;2.20;;;;;;;;;;5014098;28;20032;-72
2022/06/03 11:21:30;;;;;;;3.78;2.20;;;;;;;;;;5010479;28;20036;-75
2022/06/03 11:24:00;;;;;;;2.30;2.10;;;;;;;;;;5009216;28;20033;-75
2022/06/03 11:26:29;;;;;;;3.83;2.50;;;;;;;;;;5006107;28;20037;-75
2022/06/03 11:29:07;;;;;;;3.95;2.20;;;;;;;;;;5011220;28;20029;-75
2022/06/03 11:31:42;;;;;;;3.30;2.13;;;;;;;;;;5012274;28;20029;-76
2022/06/03 11:34:24;;;;;;;2.20;1.77;;;;;;;;;;5009380;28;20060;-75
2022/06/03 11:36:50;;;;;;;2.35;2.15;;;;;;;;;;5003781;28;20045;-75
2022/06/03 11:39:16;;;;;;;3.45;1.90;;;;;;;;;;5011916;28;20045;-77
2022/06/03 11:41:45;;;;;;;3.38;1.77;;;;;;;;;;5008798;28;20034;-75
2022/06/03 11:44:20;;;;;;;2.10;1.70;;;;;;;;;;5009833;28;20812;-75
2022/06/03 11:46:47;;;;;;;3.55;2.05;;;;;;;;;;5027009;28;20057;-75
2022/06/03 11:49:16;;;;;;;2.75;1.80;;;;;;;;;;5005984;28;20062;-75
2022/06/03 11:51:43;;;;;;;2.42;1.80;;;;;;;;;;5013943;28;20112;-75
2022/06/03 11:54:16;;;;;;;3.22;1.80;;;;;;;;;;5011671;28;20077;-77
2022/06/03 11:56:44;;;;;;;2.65;1.90;;;;;;;;;;5006637;28;20033;-76
2022/06/03 11:59:23;;;;;;;1.90;1.75;;;;;;;;;;5007676;28;20590;-76
2022/06/03 12:01:52;;;;;;;2.60;2.30;;;;;;;;;;5006399;28;20061;-75
2022/06/03 12:04:21;;;;;;;3.33;1.90;;;;;;;;;;5013393;28;20108;-75
2022/06/03 12:06:55;;;;;;;6.00;1.90;;;;;;;;;;5009234;28;20034;-75
2022/06/03 12:09:32;;;;;;;2.57;1.80;;;;;;;;;;5011697;28;20067;-76
2022/06/03 12:14:59;;;;;;;4.22;2.00;;;;;;;;;;5001800;28;20036;-76
2022/06/03 12:17:32;;;;;;;3.67;2.20;;;;;;;;;;5010174;28;20026;-77
2022/06/03 12:19:59;;;;;;;2.55;2.08;;;;;;;;;;5017058;28;20052;-76
2022/06/03 12:22:31;;;;;;;6.57;2.60;;;;;;;;;;5026249;28;20146;-77
2022/06/03 12:24:59;;;;;;;4.40;2.97;;;;;;;;;;5023393;28;20029;-76
2022/06/03 12:27:27;;;;;;;3.45;2.00;;;;;;;;;;5020414;28;20304;-77
2022/06/03 12:30:03;;;;;;;5.82;2.25;;;;;;;;;;5013477;28;20667;-76
2022/06/03 12:32:29;;;;;;;;;;;;;;;;;;5019273;28;20038;-77
2022/06/03 12:35:13;;;;;;;3.10;1.92;;;;;;;;;;5010934;28;19925;-77
2022/06/03 12:37:39;;;;;;;3.05;2.05;;;;;;;;;;5012243;28;20077;-77
2022/06/03 12:40:21;;;;;;;3.05;2.00;;;;;;;;;;5013692;28;20030;-76
2022/06/03 12:42:47;;;;;;;2.90;2.08;;;;;;;;;;5007993;28;20034;-76
2022/06/03 12:45:25;;;;;;;4.40;1.80;;;;;;;;;;5015272;28;20034;-77
2022/06/03 12:47:51;;;;;;;3.28;1.90;;;;;;;;;;5010589;28;20025;-77
2022/06/03 12:50:28;;;;;;;3.45;2.05;;;;;;;;;;5011444;28;20034;-76
2022/06/03 12:52:57;;;;;;;2.05;1.85;;;;;;;;;;5016176;28;20044;-75
2022/06/03 12:55:28;;;;;;;3.95;2.25;;;;;;;;;;5015666;28;20030;-77
2022/06/03 12:58:13;;;;;;;5.32;2.05;;;;;;;;;;5010974;28;20121;-77
2022/06/03 13:00:50;;;;;;;2.17;1.98;;;;;;;;;;5012705;28;20030;-77
2022/06/03 13:03:37;;;;;;;1.85;1.75;;;;;;;;;;5016907;28;20044;-76
2022/06/03 13:06:05;;;;;;;3.33;1.90;;;;;;;;;;5014934;28;20365;-76
2022/06/03 13:08:34;;;;;;;2.35;2.00;;;;;;;;;;5019941;28;20014;-75
2022/06/03 13:11:15;;;;;;;3.63;2.10;;;;;;;;;;5008297;28;20033;-77
2022/06/03 13:13:47;;;;;;;4.85;2.40;;;;;;;;;;5014313;28;20055;-78
2022/06/03 13:16:16;;;;;;;3.65;2.17;;;;;;;;;;5009161;28;20025;-77
2022/06/03 13:18:43;;;;;;;2.70;2.00;;;;;;;;;;5020558;28;20030;-76
2022/06/03 13:21:10;;;;;;;2.42;2.10;;;;;;;;;;5010855;28;20029;-77
2022/06/03 13:23:42;;;;;;;4.43;2.03;;;;;;;;;;5008525;28;20029;-75
2022/06/03 13:26:21;;;;;;;3.60;2.40;;;;;;;;;;5011748;28;20033;-74
2022/06/03 13:29:08;;;;;;;4.32;2.10;;;;;;;;;;5015240;28;20112;-75
2022/06/03 13:31:43;;;;;;;4.03;2.20;;;;;;;;;;5005940;28;20056;-74
2022/06/03 13:34:10;;;;;;;3.03;1.75;;;;;;;;;;5013517;28;20380;-75
2022/06/03 13:36:41;;;;;;;2.28;2.00;;;;;;;;;;5011669;28;20558;-76
2022/06/03 13:39:08;;;;;;;4.75;2.22;;;;;;;;;;5014012;28;20166;-75
2022/06/03 13:44:41;;;;;;;3.28;2.08;;;;;;;;;;5006326;28;20056;-75
2022/06/03 13:47:10;;;;;;;3.10;2.10;;;;;;;;;;5013120;28;20555;-77
2022/06/03 13:49:39;;;;;;;3.78;1.90;;;;;;;;;;5010324;28;20459;-75
2022/06/03 13:52:10;;;;;;;3.65;2.00;;;;;;;;;;5013642;28;20029;-75
2022/06/03 13:54:36;;;;;;;2.10;1.90;;;;;;;;;;5008255;28;20026;-75
2022/06/03 13:57:15;;;;;;;2.25;1.90;;;;;;;;;;5008160;28;20025;-75
2022/06/03 13:59:42;;;;;;;2.25;2.05;;;;;;;;;;5011050;28;20030;-76
2022/06/03 14:02:15;;;;;;;2.45;1.80;;;;;;;;;;5011118;28;20586;-77
2022/06/03 14:04:56;;;;;;;2.35;2.00;;;;;;;;;;5007145;28;20586;-76
2022/06/03 14:07:24;;;;;;;3.67;1.70;;;;;;;;;;5009790;28;20543;-77
2022/06/03 14:09:52;;;;;;;3.70;1.92;;;;;;;;;;4997620;28;20041;-77
2022/06/03 14:12:27;;;;;;;3.45;1.90;;;;;;;;;;5005397;28;20042;-78
2022/06/03 14:15:11;;;;;;;1.67;1.50;;;;;;;;;;5002561;28;20369;-77
2022/06/03 14:17:47;;;;;;;2.28;1.80;;;;;;;;;;5006492;28;20387;-78
2022/06/03 14:20:17;;;;;;;2.00;1.80;;;;;;;;;;5010522;28;20419;-78
2022/06/03 14:22:56;;;;;;;2.25;1.90;;;;;;;;;;5009411;28;20029;-77
2022/06/03 14:25:29;;;;;;;2.25;2.05;;;;;;;;;;5010911;28;20049;-80
2022/06/03 14:28:01;;;;;;;1.70;1.60;;;;;;;;;;5011263;28;20083;-79
2022/06/03 14:30:42;;;;;;;1.83;1.70;;;;;;;;;;5005366;28;20028;-77
2022/06/03 14:33:09;;;;;;;2.58;1.80;;;;;;;;;;5008165;28;20084;-78
2022/06/03 14:35:38;;;;;;;3.70;1.83;;;;;;;;;;5004690;28;20034;-77
2022/06/03 14:38:14;;;;;;;7.05;2.00;;;;;;;;;;5005969;28;20120;-75
2022/06/03 14:40:42;;;;;;;3.83;2.10;;;;;;;;;;5006727;28;20023;-78
2022/06/03 14:43:09;;;;;;;2.70;2.10;;;;;;;;;;5017088;28;20025;-76
2022/06/03 14:45:37;;;;;;;2.53;2.08;;;;;;;;;;5010469;28;20104;-76
2022/06/03 14:48:09;;;;;;;3.33;2.25;;;;;;;;;;5009621;28;20042;-77
2022/06/03 14:50:55;;;;;;;3.15;2.10;;;;;;;;;;5002066;28;20053;-79
2022/06/03 14:53:21;;;;;;;2.65;2.15;;;;;;;;;;5011129;28;20026;-78
2022/06/03 14:55:57;;;;;;;2.85;2.42;;;;;;;;;;5009526;28;20053;-79
2022/06/03 14:58:28;;;;;;;3.08;2.20;;;;;;;;;;5014827;28;20060;-80
2022/06/03 15:00:58;;;;;;;4.07;2.40;;;;;;;;;;5009138;28;20161;-79
2022/06/03 15:03:29;;;;;;;2.63;2.40;;;;;;;;;;5006834;28;20464;-77
2022/06/03 15:05:57;;;;;;;4.65;2.70;;;;;;;;;;5003136;28;20037;-78
2022/06/03 15:08:39;;;;;;;2.67;2.40;;;;;;;;;;5007170;28;20120;-81
2022/06/03 15:11:09;;;;;;;2.75;2.38;;;;;;;;;;5009738;28;20045;-80
2022/06/03 15:13:36;;;;;;;3.20;2.90;;;;;;;;;;5008354;28;20292;-77
2022/06/03 15:16:03;;;;;;;5.00;3.30;;;;;;;;;;5014265;28;20025;-77
2022/06/03 15:18:29;;;;;;;3.72;3.15;;;;;;;;;;5011575;28;20120;-76
2022/06/03 15:21:11;;;;;;;3.90;3.17;;;;;;;;;;5022853;28;21810;-76
2022/06/03 15:23:38;;;;;;;5.00;3.28;;;;;;;;;;5023399;28;20109;-76
2022/06/03 15:26:06;;;;;;;5.60;3.45;;;;;;;;;;5016360;28;20077;-75
2022/06/03 15:28:33;;;;;;;5.10;3.08;;;;;;;;;;5018475;28;20033;-76
2022/06/03 15:31:01;;;;;;;5.55;3.03;;;;;;;;;;5017869;28;20029;-75
2022/06/03 15:33:34;;;;;;;5.88;2.80;;;;;;;;;;5019755;28;20065;-76
2022/06/03 15:36:06;;;;;;;5.05;2.85;;;;;;;;;;5016065;28;20458;-77
2022/06/03 15:38:37;;;;;;;3.70;3.10;;;;;;;;;;5001531;28;20050;-78
2022/06/03 15:41:06;;;;;;;4.20;3.20;;;;;;;;;;5008082;28;20556;-78
2022/06/03 15:43:38;;;;;;;4.78;3.20;;;;;;;;;;5007185;28;20503;-78
2022/06/03 15:46:04;;;;;;;3.80;2.90;;;;;;;;;;5010196;28;20042;-76
2022/06/03 15:48:31;;;;;;;2.95;2.50;;;;;;;;;;4999880;28;20562;-79
2022/06/03 15:51:03;;;;;;;3.70;2.83;;;;;;;;;;5008381;28;20037;-76
2022/06/03 15:53:32;;;;;;;3.50;3.20;;;;;;;;;;5014690;28;20022;-74
2022/06/03 15:56:02;;;;;;;3.38;3.05;;;;;;;;;;5014549;28;20027;-75
2022/06/03 15:58:28;;;;;;;3.05;2.60;;;;;;;;;;5009663;28;20050;-76
2022/06/03 16:00:57;;;;;;;4.85;2.92;;;;;;;;;;5019161;28;20038;-75